Time;durP1;ratioP1;P1;durP2;ratioP2;P2;SDS_P1;SDS_P2;PMS_P1;PMS_P2;Temp;Humidity;BMP_temperature;BMP_pressure;BME280_temperature;BME280_humidity;BME280_pressure;Samples;Min_cycle;Max_cycle;Signal;HPM_P1;HPM_P2
2022/06/12 00:01:07;;;;;;;4.72;1.40;;;22.60;61.80;;;;;;5071300;28;20049;-62
2022/06/12 00:03:33;;;;;;;3.55;1.35;;;22.50;61.80;;;;;;5073830;28;20381;-61
2022/06/12 00:05:59;;;;;;;6.65;1.83;;;22.50;61.80;;;;;;5075159;28;20045;-61
2022/06/12 00:08:25;;;;;;;4.53;1.60;;;22.50;61.80;;;;;;5074457;28;20473;-61
2022/06/12 00:10:51;;;;;;;3.38;1.42;;;22.50;61.80;;;;;;5075178;28;20139;-61
2022/06/12 00:13:22;;;;;;;5.10;1.65;;;22.50;61.80;;;;;;5075324;28;20044;-61
2022/06/12 00:15:48;;;;;;;6.30;1.95;;;22.60;61.80;;;;;;5074473;28;20047;-61
2022/06/12 00:18:13;;;;;;;5.97;1.60;;;22.50;61.80;;;;;;5075345;28;20040;-61
2022/06/12 00:20:39;;;;;;;5.60;1.52;;;22.50;61.80;;;;;;5075462;28;20503;-61
2022/06/12 00:23:09;;;;;;;6.28;1.70;;;22.50;61.80;;;;;;5074056;28;20384;-61
2022/06/12 00:25:35;;;;;;;5.88;2.05;;;22.50;61.80;;;;;;5074799;28;20144;-61
2022/06/12 00:28:01;;;;;;;4.97;1.98;;;22.50;61.80;;;;;;5073705;28;20123;-61
2022/06/12 00:30:26;;;;;;;4.57;1.40;;;22.50;61.80;;;;;;5074937;28;20472;-61
2022/06/12 00:32:54;;;;;;;3.97;1.52;;;22.50;61.80;;;;;;5074795;28;20534;-61
2022/06/12 00:35:23;;;;;;;5.03;1.75;;;22.50;61.80;;;;;;5074101;28;20484;-61
2022/06/12 00:37:49;;;;;;;4.50;1.70;;;22.50;61.80;;;;;;5074448;28;20472;-61
2022/06/12 00:40:14;;;;;;;4.40;1.95;;;22.50;61.80;;;;;;5075027;28;20132;-61
2022/06/12 00:42:43;;;;;;;5.38;1.50;;;22.50;61.80;;;;;;5072903;28;20131;-62
2022/06/12 00:45:33;;;;;;;4.55;1.63;;;22.50;61.80;;;;;;5075166;28;20074;-61
2022/06/12 00:48:01;;;;;;;5.68;1.77;;;22.50;61.80;;;;;;5074618;28;20045;-61
2022/06/12 00:50:27;;;;;;;5.38;1.60;;;22.50;61.80;;;;;;5073768;28;20408;-62
2022/06/12 00:52:53;;;;;;;7.18;1.70;;;22.40;61.80;;;;;;5073002;28;20040;-61
2022/06/12 00:55:49;;;;;;;4.38;1.70;;;22.50;61.90;;;;;;5073560;28;20047;-61
2022/06/12 00:58:18;;;;;;;5.25;1.50;;;22.50;61.90;;;;;;5069689;28;20062;-61
2022/06/12 01:00:44;;;;;;;4.47;1.80;;;22.40;61.80;;;;;;5074080;28;20045;-61
2022/06/12 01:03:10;;;;;;;4.05;1.73;;;22.40;61.90;;;;;;5072595;28;20037;-61
2022/06/12 01:08:20;;;;;;;3.63;1.40;;;22.40;61.80;;;;;;5074372;28;20136;-61
2022/06/12 01:10:47;;;;;;;2.80;1.38;;;22.40;61.80;;;;;;5073352;28;20128;-61
2022/06/12 01:13:25;;;;;;;4.07;1.65;;;22.40;61.80;;;;;;5073104;28;20045;-61
2022/06/12 01:15:51;;;;;;;;;;;22.40;61.80;;;;;;5073479;28;20087;-61
2022/06/12 01:18:20;;;;;;;5.47;2.10;;;22.40;61.80;;;;;;5071829;28;20411;-61
2022/06/12 01:20:57;;;;;;;6.25;1.90;;;22.40;61.90;;;;;;5072677;28;20484;-61
2022/06/12 01:23:51;;;;;;;4.70;1.70;;;22.40;61.80;;;;;;5073926;28;20044;-61
2022/06/12 01:26:28;;;;;;;5.60;1.77;;;22.40;61.80;;;;;;5072193;28;20576;-61
2022/06/12 01:29:00;;;;;;;5.18;1.80;;;22.30;61.80;;;;;;5073725;28;20047;-61
2022/06/12 01:31:48;;;;;;;3.72;1.50;;;22.40;61.90;;;;;;5072433;28;20416;-61
2022/06/12 01:34:32;;;;;;;5.47;1.88;;;22.40;61.80;;;;;;5073765;28;20079;-61
2022/06/12 01:37:16;;;;;;;4.80;1.83;;;22.30;61.80;;;;;;5073398;28;20048;-61
2022/06/12 01:39:55;;;;;;;4.20;1.75;;;22.40;61.80;;;;;;5071599;28;20055;-61
2022/06/12 01:42:30;;;;;;;5.75;1.60;;;22.30;61.80;;;;;;5072596;28;20036;-61
2022/06/12 01:45:19;;;;;;;5.18;1.50;;;22.30;61.80;;;;;;5072265;28;20097;-61
2022/06/12 01:47:54;;;;;;;4.70;1.70;;;22.30;61.80;;;;;;5073266;28;20044;-61
2022/06/12 01:50:35;;;;;;;5.10;1.83;;;22.30;61.90;;;;;;5073248;28;20496;-61
2022/06/12 01:53:29;;;;;;;4.70;1.73;;;22.30;61.90;;;;;;5072927;28;20041;-61
2022/06/12 01:56:03;;;;;;;3.95;1.88;;;22.30;61.90;;;;;;5071605;28;20095;-61
2022/06/12 01:58:45;;;;;;;5.88;1.77;;;22.30;61.80;;;;;;5073034;28;20052;-61
2022/06/12 02:01:17;;;;;;;4.65;1.60;;;22.30;61.80;;;;;;5072284;28;20036;-61
2022/06/12 02:04:06;;;;;;;3.63;1.70;;;22.30;61.80;;;;;;5072222;28;20040;-61
2022/06/12 02:06:53;;;;;;;5.35;1.88;;;22.30;61.80;;;;;;5072000;28;20042;-61
2022/06/12 02:09:23;;;;;;;6.47;1.63;;;22.30;61.80;;;;;;5071715;28;20466;-61
2022/06/12 02:15:13;;;;;;;4.70;1.80;;;22.20;62.40;;;;;;5072209;28;20519;-61
2022/06/12 02:17:46;;;;;;;5.05;1.60;;;22.30;61.80;;;;;;5073807;28;20119;-61
2022/06/12 02:20:12;;;;;;;5.00;1.70;;;22.20;61.80;;;;;;5071699;28;20083;-62
2022/06/12 02:22:39;;;;;;;4.97;1.80;;;22.20;61.80;;;;;;5071159;28;20041;-62
2022/06/12 02:25:11;;;;;;;5.78;1.70;;;22.20;61.80;;;;;;5071277;28;20052;-61
2022/06/12 02:27:49;;;;;;;5.32;1.50;;;22.20;61.70;;;;;;5070759;28;20526;-61
2022/06/12 02:30:26;;;;;;;5.00;1.73;;;22.20;61.70;;;;;;5071600;28;20055;-61
2022/06/12 02:33:01;;;;;;;5.20;1.75;;;22.20;61.70;;;;;;5072609;28;20052;-61
2022/06/12 02:35:30;;;;;;;5.72;1.52;;;22.20;61.80;;;;;;5071554;28;20049;-62
2022/06/12 02:38:01;;;;;;;4.00;1.67;;;22.20;61.70;;;;;;5071730;28;20044;-62
2022/06/12 02:40:38;;;;;;;4.30;1.55;;;22.20;61.70;;;;;;5072256;28;20055;-61
2022/06/12 02:43:08;;;;;;;4.95;1.70;;;22.20;61.70;;;;;;5070655;28;20040;-61
2022/06/12 02:45:44;;;;;;;4.13;1.40;;;22.20;62.30;;;;;;5072155;28;20059;-62
2022/06/12 02:48:10;;;;;;;3.53;1.45;;;22.20;61.70;;;;;;5071674;28;20102;-61
2022/06/12 02:50:49;;;;;;;5.20;1.70;;;22.20;61.70;;;;;;5070838;28;20048;-61
2022/06/12 02:53:19;;;;;;;4.63;1.55;;;22.20;61.70;;;;;;5071250;28;20036;-62
2022/06/12 02:56:23;;;;;;;5.50;1.88;;;22.20;61.60;;;;;;5070530;28;20044;-62
2022/06/12 02:58:55;;;;;;;3.80;1.50;;;22.20;61.60;;;;;;5071907;28;20128;-61
2022/06/12 03:01:25;;;;;;;6.60;1.63;;;22.20;61.70;;;;;;5072802;28;20115;-61
2022/06/12 03:04:11;;;;;;;5.68;1.65;;;22.20;61.70;;;;;;5070364;28;20063;-61
2022/06/12 03:06:38;;;;;;;4.72;1.65;;;22.10;61.60;;;;;;5072347;28;20053;-61
2022/06/12 03:09:04;;;;;;;3.05;1.38;;;22.10;61.60;;;;;;5072125;28;20062;-61
2022/06/12 03:11:33;;;;;;;5.13;1.50;;;22.10;61.60;;;;;;5070825;28;20037;-61
2022/06/12 03:13:59;;;;;;;5.47;1.67;;;22.10;61.60;;;;;;5072162;28;20090;-61
2022/06/12 03:16:27;;;;;;;3.22;1.25;;;22.10;61.60;;;;;;5072040;28;20044;-62
2022/06/12 03:19:23;;;;;;;3.50;1.20;;;22.10;61.70;;;;;;5071235;28;20374;-61
2022/06/12 03:22:12;;;;;;;5.10;1.77;;;22.10;62.20;;;;;;5057371;28;20061;-62
2022/06/12 03:25:00;;;;;;;3.15;1.20;;;22.10;61.60;;;;;;5071327;28;20131;-61
2022/06/12 03:27:29;;;;;;;4.03;1.30;;;22.10;61.70;;;;;;5071491;28;20044;-61
2022/06/12 03:29:57;;;;;;;4.20;2.15;;;22.10;61.70;;;;;;5072039;28;20098;-61
2022/06/12 03:32:52;;;;;;;4.30;1.30;;;22.10;61.70;;;;;;5070201;28;20049;-61
2022/06/12 03:35:40;;;;;;;5.18;1.60;;;22.10;61.70;;;;;;5072172;28;20040;-61
2022/06/12 03:38:39;;;;;;;3.90;1.48;;;22.10;61.60;;;;;;5072521;28;20040;-61
2022/06/12 03:41:25;;;;;;;6.07;1.83;;;22.00;61.50;;;;;;5053405;28;20040;-61
2022/06/12 03:43:54;;;;;;;3.30;1.42;;;22.10;61.70;;;;;;5075284;28;20535;-61
2022/06/12 03:46:34;;;;;;;2.80;1.20;;;22.10;61.70;;;;;;5073827;28;20498;-61
2022/06/12 03:49:10;;;;;;;3.67;1.30;;;22.10;61.70;;;;;;5075609;28;20048;-62
2022/06/12 03:51:51;;;;;;;3.35;1.30;;;22.10;61.70;;;;;;5075840;28;20037;-62
2022/06/12 03:54:34;;;;;;;3.88;1.30;;;22.10;61.70;;;;;;5074900;28;20071;-62
2022/06/12 03:59:59;;;;;;;3.58;1.30;;;22.00;61.60;;;;;;5074306;28;20135;-61
2022/06/12 04:02:25;;;;;;;5.55;1.95;;;22.00;61.60;;;;;;5075240;28;20048;-61
2022/06/12 04:04:51;;;;;;;3.38;1.30;;;22.00;61.60;;;;;;5073695;28;20045;-61
2022/06/12 04:07:17;;;;;;;4.93;1.80;;;22.00;61.60;;;;;;5073398;28;20052;-61
2022/06/12 04:09:45;;;;;;;4.22;1.30;;;22.00;61.70;;;;;;5074095;28;20044;-61
2022/06/12 04:12:35;;;;;;;3.13;1.30;;;22.00;61.60;;;;;;5074091;28;20048;-61
2022/06/12 04:15:22;;;;;;;3.17;1.20;;;22.00;61.70;;;;;;5073722;28;20139;-61
2022/06/12 04:17:47;;;;;;;3.53;1.40;;;22.00;61.60;;;;;;5073883;28;20040;-61
2022/06/12 04:20:16;;;;;;;3.83;1.60;;;22.10;61.70;;;;;;5074380;28;20476;-61
2022/06/12 04:22:46;;;;;;;;;;;22.00;61.70;;;;;;5074336;28;20141;-62
2022/06/12 04:25:31;;;;;;;5.65;1.40;;;22.00;61.60;;;;;;5073789;28;19927;-61
2022/06/12 04:27:57;;;;;;;3.33;1.08;;;22.00;61.70;;;;;;5073482;28;20084;-61
2022/06/12 04:30:25;;;;;;;3.00;1.08;;;22.00;61.70;;;;;;5075369;28;20079;-61
2022/06/12 04:33:14;;;;;;;3.03;1.20;;;22.10;61.70;;;;;;5074791;28;20504;-61
2022/06/12 04:35:44;;;;;;;4.88;1.42;;;22.10;61.70;;;;;;5072883;28;20549;-61
2022/06/12 04:38:09;;;;;;;3.65;1.25;;;22.10;61.70;;;;;;5074255;28;20104;-61
2022/06/12 04:40:35;;;;;;;4.47;1.45;;;22.10;61.70;;;;;;5074975;28;20484;-61
2022/06/12 04:43:00;;;;;;;3.75;1.10;;;22.10;61.70;;;;;;5073320;28;20446;-61
2022/06/12 04:45:26;;;;;;;4.15;1.42;;;22.10;61.70;;;;;;5074963;28;20054;-61
2022/06/12 04:47:51;;;;;;;4.78;1.23;;;22.10;61.70;;;;;;5073093;28;20603;-61
2022/06/12 04:50:17;;;;;;;3.03;1.20;;;22.10;61.70;;;;;;5072806;28;20528;-61
2022/06/12 04:52:43;;;;;;;4.18;1.30;;;22.10;61.70;;;;;;5074468;28;20484;-61
2022/06/12 04:55:08;;;;;;;4.05;1.75;;;22.20;61.70;;;;;;5074133;28;20048;-61
2022/06/12 04:57:34;;;;;;;3.60;1.20;;;22.20;61.70;;;;;;5074382;28;20036;-61
2022/06/12 05:00:00;;;;;;;3.67;1.02;;;22.20;61.70;;;;;;5074049;28;20059;-62
2022/06/12 05:02:25;;;;;;;2.58;1.00;;;22.20;61.70;;;;;;5073611;28;20347;-62
2022/06/12 05:04:51;;;;;;;2.03;0.98;;;22.20;61.60;;;;;;5074227;28;20067;-61
2022/06/12 05:07:17;;;;;;;4.15;1.40;;;22.20;61.60;;;;;;5074687;28;20044;-61
2022/06/12 05:09:42;;;;;;;3.58;1.25;;;22.20;61.90;;;;;;5073152;28;20056;-61
2022/06/12 05:12:09;;;;;;;3.45;1.38;;;22.20;61.60;;;;;;5073631;28;20063;-62
2022/06/12 05:14:34;;;;;;;3.85;1.55;;;22.20;61.50;;;;;;5074293;28;20464;-61
2022/06/12 05:17:03;;;;;;;3.88;1.13;;;22.20;61.50;;;;;;5073207;28;20072;-61
2022/06/12 05:19:31;;;;;;;4.68;1.00;;;22.30;61.50;;;;;;5074028;28;20037;-62
2022/06/12 05:21:57;;;;;;;3.17;1.13;;;22.30;61.50;;;;;;5073942;28;20051;-62
2022/06/12 05:24:23;;;;;;;5.43;1.63;;;22.30;61.50;;;;;;5073040;28;20056;-62
2022/06/12 05:26:49;;;;;;;3.33;1.20;;;22.30;61.60;;;;;;5073823;28;20040;-62
2022/06/12 05:29:34;;;;;;;3.97;1.40;;;22.30;61.50;;;;;;5071898;28;20052;-61
2022/06/12 05:32:00;;;;;;;3.88;1.20;;;22.30;61.50;;;;;;5071972;28;20488;-61
2022/06/12 05:34:26;;;;;;;4.10;1.25;;;22.30;61.50;;;;;;5073792;28;20071;-62
2022/06/12 05:36:51;;;;;;;3.97;1.42;;;22.30;61.50;;;;;;5073280;28;20040;-62
2022/06/12 05:39:17;;;;;;;6.80;1.83;;;22.30;61.40;;;;;;5073109;28;20098;-61
2022/06/12 05:41:43;;;;;;;3.03;1.17;;;22.40;61.50;;;;;;5073320;28;20431;-62
2022/06/12 05:44:08;;;;;;;4.18;1.42;;;22.30;61.40;;;;;;5072224;28;20045;-61
2022/06/12 05:46:34;;;;;;;4.32;1.70;;;22.30;61.40;;;;;;5072441;28;20040;-62
2022/06/12 05:49:00;;;;;;;6.55;1.83;;;22.30;61.40;;;;;;5072859;28;20043;-62
2022/06/12 05:51:25;;;;;;;6.35;1.80;;;22.40;61.40;;;;;;5072673;28;20040;-62
2022/06/12 05:53:51;;;;;;;8.40;1.77;;;22.40;62.00;;;;;;5073086;28;20051;-62
2022/06/12 05:56:19;;;;;;;6.82;2.05;;;22.40;61.50;;;;;;5073269;28;20108;-62
2022/06/12 05:58:45;;;;;;;5.97;1.75;;;22.40;61.80;;;;;;5072144;28;20044;-62
2022/06/12 06:01:12;;;;;;;5.90;1.88;;;22.40;61.70;;;;;;5072937;28;20181;-62
2022/06/12 06:03:38;;;;;;;5.88;1.90;;;22.40;61.60;;;;;;5072982;28;20525;-62
2022/06/12 06:06:05;;;;;;;4.53;1.60;;;22.40;61.70;;;;;;5070880;28;20041;-62
2022/06/12 06:08:30;;;;;;;6.10;1.80;;;22.40;61.70;;;;;;5072035;28;20045;-62
2022/06/12 06:10:56;;;;;;;6.57;1.77;;;22.40;61.70;;;;;;5073054;28;20049;-61
2022/06/12 06:13:21;;;;;;;5.55;2.00;;;22.40;61.70;;;;;;5071624;28;20119;-62
2022/06/12 06:15:47;;;;;;;6.78;1.60;;;22.40;61.70;;;;;;5072624;28;20048;-61
2022/06/12 06:18:12;;;;;;;4.85;1.73;;;22.40;61.80;;;;;;5072524;28;20499;-61
2022/06/12 06:20:38;;;;;;;5.78;1.95;;;22.40;61.80;;;;;;5071614;28;20083;-65
2022/06/12 06:23:05;;;;;;;7.15;1.42;;;22.40;61.90;;;;;;5072562;28;20051;-60
2022/06/12 06:25:31;;;;;;;7.40;1.77;;;22.40;61.90;;;;;;5072543;28;20060;-62
2022/06/12 06:27:56;;;;;;;7.38;1.60;;;22.40;62.10;;;;;;5071186;28;20043;-61
2022/06/12 06:30:22;;;;;;;6.00;2.05;;;22.50;62.30;;;;;;5072794;28;20511;-61
2022/06/12 06:32:48;;;;;;;5.18;1.55;;;22.50;62.20;;;;;;5072570;28;20040;-62
2022/06/12 06:35:14;;;;;;;11.15;1.90;;;22.40;62.30;;;;;;5071299;28;20045;-62
2022/06/12 06:37:40;;;;;;;7.13;1.50;;;22.50;62.40;;;;;;5072461;28;20115;-63
2022/06/12 06:40:06;;;;;;;6.55;1.73;;;22.50;62.90;;;;;;5073011;28;20064;-63
2022/06/12 06:42:32;;;;;;;6.95;1.65;;;22.50;62.30;;;;;;5071931;28;20048;-64
2022/06/12 06:47:42;;;;;;;7.53;1.42;;;22.50;62.50;;;;;;5051287;28;20045;-63
2022/06/12 06:50:08;;;;;;;6.40;1.52;;;22.50;62.50;;;;;;5055804;28;20089;-63
2022/06/12 06:52:34;;;;;;;7.32;1.70;;;22.50;62.60;;;;;;5052463;28;20076;-63
2022/06/12 06:55:00;;;;;;;8.52;1.50;;;22.50;62.60;;;;;;5051564;28;20073;-62
2022/06/12 06:57:26;;;;;;;6.00;1.55;;;22.50;62.50;;;;;;5052518;28;20059;-62
2022/06/12 06:59:51;;;;;;;5.70;1.48;;;22.40;62.30;;;;;;5053351;28;20541;-62
2022/06/12 07:02:17;;;;;;;7.78;1.55;;;22.50;63.00;;;;;;5071929;28;20575;-62
2022/06/12 07:04:43;;;;;;;7.25;1.58;;;22.50;62.40;;;;;;5071133;28;20432;-62
2022/06/12 07:07:09;;;;;;;5.45;1.60;;;22.40;62.20;;;;;;5071119;28;20115;-62
2022/06/12 07:09:36;;;;;;;4.97;1.67;;;22.40;62.20;;;;;;5071617;28;20140;-62
2022/06/12 07:12:02;;;;;;;5.68;1.80;;;22.40;62.20;;;;;;5072109;28;20040;-62
2022/06/12 07:14:28;;;;;;;11.10;1.50;;;22.40;62.20;;;;;;5076127;28;20044;-62
2022/06/12 07:16:55;;;;;;;7.47;1.48;;;22.40;62.20;;;;;;5075584;28;20480;-62
2022/06/12 07:19:21;;;;;;;6.57;1.52;;;22.40;62.20;;;;;;5076467;28;20067;-62
2022/06/12 07:21:46;;;;;;;7.38;2.10;;;22.40;62.20;;;;;;5076180;28;20476;-64
2022/06/12 07:24:12;;;;;;;11.35;2.03;;;22.40;62.20;;;;;;5075443;28;20521;-63
2022/06/12 07:26:40;;;;;;;6.72;1.77;;;22.40;62.20;;;;;;5076467;28;20048;-62
2022/06/12 07:29:05;;;;;;;6.88;1.92;;;22.40;62.20;;;;;;5076352;28;20047;-62
2022/06/12 07:31:31;;;;;;;7.78;1.58;;;22.40;62.20;;;;;;5074987;28;20032;-62
2022/06/12 07:33:57;;;;;;;6.05;1.38;;;22.40;62.20;;;;;;5075796;28;20392;-63
2022/06/12 07:36:22;;;;;;;5.88;1.30;;;22.40;62.20;;;;;;5075686;28;20055;-62
2022/06/12 07:38:49;;;;;;;4.80;1.40;;;22.40;62.20;;;;;;5072955;28;20058;-62
2022/06/12 07:41:15;;;;;;;5.55;1.50;;;22.40;62.20;;;;;;5076122;28;20045;-62
2022/06/12 07:43:40;;;;;;;4.80;1.40;;;22.40;62.20;;;;;;5075455;28;20063;-63
2022/06/12 07:46:08;;;;;;;5.53;1.65;;;22.40;62.20;;;;;;5073283;28;20389;-62
2022/06/12 07:48:33;;;;;;;7.37;1.50;;;22.40;62.20;;;;;;5075868;28;20055;-62
2022/06/12 07:51:00;;;;;;;5.78;1.50;;;22.40;62.20;;;;;;5074850;28;20517;-63
2022/06/12 07:53:26;;;;;;;6.60;1.65;;;22.40;62.20;;;;;;5076019;28;20055;-62
2022/06/12 07:55:52;;;;;;;10.77;2.10;;;22.40;62.20;;;;;;5075594;28;20036;-63
2022/06/12 07:58:19;;;;;;;7.93;2.25;;;22.40;62.20;;;;;;5074399;28;20075;-63
2022/06/12 08:00:45;;;;;;;11.98;2.92;;;22.40;62.20;;;;;;5074624;28;20048;-62
2022/06/12 08:03:10;;;;;;;12.70;3.85;;;22.40;62.20;;;;;;5075465;28;20055;-62
2022/06/12 08:05:36;;;;;;;13.43;3.60;;;22.40;62.20;;;;;;5074429;28;20040;-61
2022/06/12 08:08:01;;;;;;;14.65;4.28;;;22.40;62.40;;;;;;5075371;28;20047;-63
2022/06/12 08:10:27;;;;;;;14.00;3.58;;;22.40;62.50;;;;;;5075639;28;20131;-61
2022/06/12 08:12:55;;;;;;;17.45;3.53;;;22.40;62.60;;;;;;5074333;28;20043;-61
2022/06/12 08:15:23;;;;;;;13.07;3.53;;;22.40;62.70;;;;;;5075289;28;20423;-61
2022/06/12 08:17:49;;;;;;;12.05;3.10;;;22.40;62.70;;;;;;5074805;28;20036;-60
2022/06/12 08:20:24;;;;;;;14.68;3.60;;;22.50;62.90;;;;;;5073797;28;20036;-61
2022/06/12 08:22:54;;;;;;;15.70;3.70;;;22.50;63.00;;;;;;5074742;28;20033;-61
2022/06/12 08:25:20;;;;;;;12.90;3.53;;;22.50;63.00;;;;;;5073283;28;20064;-61
2022/06/12 08:27:46;;;;;;;12.05;3.28;;;22.50;63.00;;;;;;5073709;28;20051;-62
2022/06/12 08:30:12;;;;;;;12.02;2.92;;;22.50;63.10;;;;;;5075225;28;20094;-62
2022/06/12 08:32:37;;;;;;;11.93;3.00;;;22.50;63.00;;;;;;5074724;28;20044;-62
2022/06/12 08:35:10;;;;;;;9.20;2.60;;;22.50;62.90;;;;;;5072259;28;20055;-62
2022/06/12 08:37:37;;;;;;;12.88;3.20;;;22.50;62.70;;;;;;5073503;28;20041;-61
2022/06/12 08:40:04;;;;;;;10.45;2.70;;;22.50;62.70;;;;;;5074159;28;20045;-62
2022/06/12 08:42:41;;;;;;;12.05;2.67;;;22.50;62.50;;;;;;5074157;28;20110;-61
2022/06/12 08:45:15;;;;;;;13.82;3.08;;;22.50;62.50;;;;;;5073663;28;20469;-62
2022/06/12 08:48:09;;;;;;;12.55;2.97;;;22.50;62.40;;;;;;5073728;28;20055;-62
2022/06/12 08:50:43;;;;;;;14.05;3.15;;;22.50;62.40;;;;;;5067440;28;20083;-61
2022/06/12 08:53:24;;;;;;;10.57;2.95;;;22.50;62.40;;;;;;5053659;28;20404;-63
2022/06/12 08:55:57;;;;;;;9.80;3.25;;;22.50;62.40;;;;;;5052508;28;20055;-62
2022/06/12 08:58:30;;;;;;;17.45;3.10;;;22.50;62.50;;;;;;5053921;28;20041;-63
2022/06/12 09:00:57;;;;;;;11.20;3.25;;;22.50;62.60;;;;;;5054144;28;20045;-63
2022/06/12 09:03:24;;;;;;;11.23;2.50;;;22.50;62.60;;;;;;5053724;28;20056;-62
2022/06/12 09:06:18;;;;;;;10.82;2.70;;;22.50;62.70;;;;;;5055812;28;20045;-62
2022/06/12 09:09:24;;;;;;;10.68;3.13;;;22.50;62.70;;;;;;5073286;28;20049;-63
2022/06/12 09:12:02;;;;;;;12.30;2.90;;;22.50;62.80;;;;;;5067534;28;20052;-62
2022/06/12 09:14:33;;;;;;;11.27;2.88;;;22.60;62.80;;;;;;5073977;28;20060;-62
2022/06/12 09:17:36;;;;;;;7.07;2.53;;;22.50;62.80;;;;;;5073071;28;20558;-63
2022/06/12 09:20:28;;;;;;;10.35;2.78;;;22.50;62.80;;;;;;5073805;28;20531;-63
2022/06/12 09:23:03;;;;;;;12.68;2.53;;;22.60;62.90;;;;;;5053220;28;20049;-63
2022/06/12 09:25:37;;;;;;;9.73;2.67;;;22.50;62.90;;;;;;5072561;28;20061;-63
2022/06/12 09:28:34;;;;;;;10.73;2.60;;;22.60;63.00;;;;;;5072382;28;20041;-63
2022/06/12 09:31:09;;;;;;;10.63;2.55;;;22.60;62.90;;;;;;5071645;28;20071;-62
2022/06/12 09:33:38;;;;;;;7.97;2.03;;;22.60;62.90;;;;;;5056776;28;20052;-62
2022/06/12 09:36:27;;;;;;;11.45;3.28;;;22.60;62.80;;;;;;5072774;28;20083;-63
2022/06/12 09:39:05;;;;;;;10.18;2.60;;;22.60;62.70;;;;;;5068291;28;20072;-62
2022/06/12 09:42:03;;;;;;;8.23;2.63;;;22.60;62.60;;;;;;5053747;28;20106;-62
2022/06/12 09:44:45;;;;;;;11.32;2.75;;;22.60;62.60;;;;;;5064775;28;20049;-63
2022/06/12 09:47:19;;;;;;;10.13;2.17;;;22.60;62.70;;;;;;5068193;28;20048;-63
2022/06/12 09:49:47;;;;;;;10.32;2.22;;;22.60;62.60;;;;;;5068005;28;20447;-62
2022/06/12 09:52:22;;;;;;;8.18;2.30;;;22.60;62.60;;;;;;5070457;28;20040;-62
2022/06/12 09:55:01;;;;;;;7.88;2.22;;;22.60;62.60;;;;;;5065341;28;20045;-62
2022/06/12 09:57:53;;;;;;;12.50;2.53;;;22.70;62.70;;;;;;5057839;28;20041;-64
2022/06/12 10:00:23;;;;;;;9.40;2.42;;;22.70;62.60;;;;;;5073158;28;20067;-62
2022/06/12 10:03:08;;;;;;;7.80;2.35;;;22.70;62.50;;;;;;5072290;28;20484;-62
2022/06/12 10:05:59;;;;;;;9.52;2.25;;;22.70;62.50;;;;;;5071536;28;20040;-61
2022/06/12 10:08:50;;;;;;;9.75;2.78;;;22.70;62.60;;;;;;5070044;28;20068;-62
2022/06/12 10:11:19;;;;;;;12.20;2.25;;;22.70;62.60;;;;;;5071168;28;20024;-62
2022/06/12 10:13:57;;;;;;;11.30;2.42;;;22.70;62.60;;;;;;5070841;28;20053;-64
2022/06/12 10:16:37;;;;;;;11.32;2.55;;;22.80;62.40;;;;;;5070777;28;20079;-62
2022/06/12 10:19:08;;;;;;;8.40;2.30;;;22.80;62.50;;;;;;5069559;28;20045;-61
2022/06/12 10:21:35;;;;;;;14.18;2.67;;;22.80;62.70;;;;;;5071751;28;20526;-62
2022/06/12 10:24:01;;;;;;;11.10;2.03;;;22.80;62.70;;;;;;5072028;28;20084;-61
2022/06/12 10:26:28;;;;;;;10.05;2.03;;;22.80;62.50;;;;;;5071735;28;20048;-61
2022/06/12 10:29:07;;;;;;;9.25;2.15;;;22.80;62.40;;;;;;5071529;28;20484;-63
2022/06/12 10:31:34;;;;;;;7.22;1.40;;;22.80;62.40;;;;;;5072029;28;20056;-63
2022/06/12 10:34:16;;;;;;;7.15;1.80;;;22.80;62.40;;;;;;5070869;28;20098;-63
2022/06/12 10:36:41;;;;;;;9.02;2.50;;;22.80;62.40;;;;;;5072248;28;20055;-62
2022/06/12 10:39:10;;;;;;;10.13;2.90;;;22.90;62.30;;;;;;5072370;28;20040;-62
2022/06/12 10:42:03;;;;;;;11.00;2.33;;;22.90;62.50;;;;;;5072108;28;20110;-62
2022/06/12 10:44:31;;;;;;;8.98;2.22;;;22.80;62.40;;;;;;5068262;28;20053;-62
2022/06/12 10:47:15;;;;;;;13.85;3.72;;;22.90;62.40;;;;;;5071698;28;20048;-62
2022/06/12 10:49:41;;;;;;;11.27;2.65;;;22.80;62.60;;;;;;5071926;28;20555;-62
2022/06/12 10:52:18;;;;;;;8.25;2.22;;;22.90;62.50;;;;;;5071316;28;20132;-61
2022/06/12 10:54:45;;;;;;;11.20;2.65;;;22.80;62.40;;;;;;5071582;28;20040;-62
2022/06/12 10:57:36;;;;;;;6.97;2.13;;;22.90;62.40;;;;;;5071381;28;20084;-64
2022/06/12 11:00:02;;;;;;;9.52;2.30;;;22.80;62.20;;;;;;5072070;28;20040;-63
2022/06/12 11:02:47;;;;;;;10.07;2.33;;;22.80;62.20;;;;;;5071829;28;20037;-62
2022/06/12 11:05:34;;;;;;;8.70;2.45;;;22.80;62.10;;;;;;5072348;28;20405;-63
2022/06/12 11:08:19;;;;;;;7.80;2.47;;;22.80;61.80;;;;;;5070079;28;20416;-63
2022/06/12 11:10:58;;;;;;;9.10;2.33;;;22.80;61.80;;;;;;5070952;28;20042;-62
2022/06/12 11:13:51;;;;;;;7.35;2.40;;;22.80;61.60;;;;;;5071516;28;20064;-63
2022/06/12 11:16:25;;;;;;;7.38;1.98;;;22.80;61.40;;;;;;5071382;28;20389;-63
2022/06/12 11:19:16;;;;;;;10.60;1.95;;;22.80;61.30;;;;;;5071745;28;20124;-62
2022/06/12 11:21:55;;;;;;;7.90;2.08;;;22.80;61.10;;;;;;5054272;28;20060;-62
2022/06/12 11:24:31;;;;;;;8.65;1.95;;;22.70;61.10;;;;;;5071758;28;20052;-62
2022/06/12 11:27:06;;;;;;;7.40;2.00;;;22.80;61.00;;;;;;5070803;28;20052;-64
2022/06/12 11:30:01;;;;;;;8.48;2.25;;;22.80;60.90;;;;;;5069856;28;20480;-64
2022/06/12 11:32:32;;;;;;;5.93;1.67;;;22.80;60.80;;;;;;5034943;28;20053;-64
2022/06/12 11:35:22;;;;;;;5.22;1.52;;;22.70;59.40;;;;;;5071894;28;20084;-64
2022/06/12 11:38:02;;;;;;;7.45;2.17;;;22.70;58.50;;;;;;5070800;28;20032;-68
2022/06/12 11:40:51;;;;;;;6.95;1.60;;;22.70;56.90;;;;;;5072071;28;20058;-68
2022/06/12 11:43:39;;;;;;;8.57;2.00;;;22.60;56.40;;;;;;5071551;28;20044;-68
2022/06/12 11:46:21;;;;;;;9.05;1.55;;;22.50;54.90;;;;;;5070571;28;20097;-69
2022/06/12 11:49:00;;;;;;;4.75;1.20;;;22.50;53.70;;;;;;5070704;28;20480;-64
2022/06/12 11:51:53;;;;;;;5.18;1.30;;;22.50;54.00;;;;;;5071401;28;20037;-61
2022/06/12 11:54:29;;;;;;;8.38;1.33;;;22.40;53.80;;;;;;5072980;28;20049;-62
2022/06/12 11:57:18;;;;;;;4.63;1.30;;;22.50;54.00;;;;;;5071613;28;20464;-62
2022/06/12 11:59:53;;;;;;;6.13;1.58;;;22.50;54.00;;;;;;5056087;28;20045;-62
2022/06/12 12:02:32;;;;;;;7.45;1.75;;;22.50;54.10;;;;;;5065185;28;20557;-62
2022/06/12 12:05:32;;;;;;;4.10;1.10;;;22.50;54.00;;;;;;5068318;28;20037;-62
2022/06/12 12:08:31;;;;;;;8.27;1.42;;;22.60;54.30;;;;;;5070307;28;20047;-62
2022/06/12 12:11:11;;;;;;;5.72;1.20;;;22.60;54.40;;;;;;5074652;28;20036;-63
2022/06/12 12:13:45;;;;;;;3.08;1.20;;;22.70;54.40;;;;;;5073899;28;20076;-63
2022/06/12 12:16:14;;;;;;;5.18;1.27;;;22.70;54.40;;;;;;5074433;28;20128;-63
2022/06/12 12:18:45;;;;;;;5.97;1.20;;;22.70;54.50;;;;;;5074247;28;20041;-65
2022/06/12 12:21:17;;;;;;;5.25;1.30;;;22.70;54.40;;;;;;5074985;28;20052;-63
2022/06/12 12:23:44;;;;;;;4.68;1.10;;;22.70;54.50;;;;;;5072931;28;20064;-62
2022/06/12 12:26:26;;;;;;;6.32;1.33;;;22.80;54.60;;;;;;5074340;28;20056;-62
2022/06/12 12:28:54;;;;;;;5.07;1.38;;;22.80;54.70;;;;;;5074867;28;20092;-63
2022/06/12 12:31:19;;;;;;;;;;;22.80;54.80;;;;;;5074609;28;20094;-63
2022/06/12 12:33:46;;;;;;;5.65;1.23;;;22.80;55.00;;;;;;5072872;28;19921;-63
2022/06/12 12:41:53;;;;;;;6.13;1.10;;;22.90;54.90;;;;;;5073512;28;20489;-62
2022/06/12 12:44:32;;;;;;;4.00;1.13;;;22.90;55.00;;;;;;5074584;28;20044;-63
2022/06/12 12:46:58;;;;;;;4.13;1.05;;;22.90;54.90;;;;;;5073704;28;20048;-63
2022/06/12 12:49:34;;;;;;;3.83;1.10;;;22.90;54.90;;;;;;5074653;28;20044;-63
2022/06/12 12:52:10;;;;;;;3.25;1.20;;;22.90;54.90;;;;;;5074360;28;20052;-63
2022/06/12 12:54:55;;;;;;;3.80;1.30;;;22.90;54.80;;;;;;5073820;28;20086;-63
2022/06/12 12:57:42;;;;;;;5.13;1.15;;;23.00;54.90;;;;;;5074548;28;20040;-64
2022/06/12 13:00:17;;;;;;;4.00;1.38;;;23.00;54.90;;;;;;5090033;28;20554;-63
2022/06/12 13:03:06;;;;;;;4.15;1.25;;;23.00;54.80;;;;;;5072831;28;20053;-63
2022/06/12 13:05:46;;;;;;;3.70;1.08;;;23.00;54.90;;;;;;5073858;28;20037;-63
2022/06/12 13:08:30;;;;;;;4.50;1.08;;;22.90;54.80;;;;;;5071645;28;20072;-65
2022/06/12 13:11:15;;;;;;;5.25;1.08;;;23.00;54.90;;;;;;5072024;28;20040;-62
2022/06/12 13:13:49;;;;;;;6.22;1.40;;;23.00;55.00;;;;;;5072341;28;20048;-62
2022/06/12 13:16:16;;;;;;;4.47;1.30;;;23.00;55.20;;;;;;5072741;28;20087;-61
2022/06/12 13:19:08;;;;;;;2.85;1.00;;;23.00;55.10;;;;;;5068478;28;20500;-61
2022/06/12 13:22:02;;;;;;;5.95;1.33;;;23.00;55.20;;;;;;5065991;28;20374;-62
2022/06/12 13:24:36;;;;;;;6.72;1.10;;;23.10;55.40;;;;;;5064348;28;20049;-61
2022/06/12 13:27:32;;;;;;;2.10;1.17;;;23.10;55.30;;;;;;5071260;28;20045;-61
2022/06/12 13:29:58;;;;;;;3.63;1.00;;;23.10;55.40;;;;;;5059298;28;20094;-61
2022/06/12 13:32:28;;;;;;;3.97;0.88;;;23.20;55.30;;;;;;5073495;28;20029;-61
2022/06/12 13:34:58;;;;;;;4.60;1.35;;;23.20;55.20;;;;;;5072851;28;20499;-61